createdAt,value
2023-10-19T00:01:01.356Z,67.76
2023-10-19T00:03:28.716Z,68.24
2023-10-19T00:05:57.813Z,67.92
2023-10-19T00:08:25.598Z,67.63
2023-10-19T00:11:04.459Z,66.76
2023-10-19T00:13:32.184Z,66.63
2023-10-19T00:16:00.012Z,66.31
2023-10-19T00:18:27.088Z,67.05
2023-10-19T00:21:28.953Z,66.61
2023-10-19T00:23:58.838Z,67.14
2023-10-19T00:26:28.317Z,66.99
2023-10-19T00:29:15.797Z,66.98
2023-10-19T00:31:43.069Z,67.42
2023-10-19T00:34:11.496Z,67.24
2023-10-19T00:36:40.563Z,66.93
2023-10-19T00:39:29.609Z,66.55
2023-10-19T00:41:58.974Z,66.63
2023-10-19T00:44:44.748Z,66.67
2023-10-19T00:47:14.840Z,66.75
2023-10-19T00:49:45.521Z,66.93
2023-10-19T00:52:13.071Z,67.17
2023-10-19T00:55:03.316Z,66.96
2023-10-19T00:57:35.521Z,67.41
2023-10-19T01:00:23.970Z,66.67
2023-10-19T01:02:52.882Z,67.30
2023-10-19T01:05:23.158Z,67.42
2023-10-19T01:08:01.763Z,67.82
2023-10-19T01:10:29.857Z,67.95
2023-10-19T01:13:00.677Z,68.16
2023-10-19T01:15:30.626Z,68.58
2023-10-19T01:18:00.040Z,68.62
2023-10-19T01:20:29.841Z,69.45
2023-10-19T01:23:18.900Z,69.58
2023-10-19T01:25:56.688Z,69.50
2023-10-19T01:28:47.647Z,69.15
2023-10-19T01:31:24.385Z,69.81
2023-10-19T01:33:51.941Z,69.76
2023-10-19T01:36:24.831Z,69.48
2023-10-19T01:38:56.890Z,69.49
2023-10-19T01:41:27.814Z,69.19
2023-10-19T01:43:55.736Z,68.97
2023-10-19T01:46:26.544Z,69.11
2023-10-19T01:48:56.961Z,69.61
2023-10-19T01:51:31.696Z,69.42
2023-10-19T01:54:00.042Z,69.36
2023-10-19T01:56:27.147Z,69.29
2023-10-19T01:58:56.180Z,69.35
2023-10-19T02:01:29.848Z,69.68
2023-10-19T02:04:01.202Z,69.64
2023-10-19T02:06:38.413Z,69.85
2023-10-19T02:09:18.846Z,69.78
2023-10-19T02:11:48.406Z,69.63
2023-10-19T02:14:20.255Z,70.01
2023-10-19T02:16:53.777Z,70.06
2023-10-19T02:19:22.931Z,69.79
2023-10-19T02:21:53.747Z,69.51
2023-10-19T02:24:21.653Z,69.48
2023-10-19T02:26:55.113Z,69.87
2023-10-19T02:29:27.377Z,69.29
2023-10-19T02:31:57.694Z,69.51
2023-10-19T02:34:25.794Z,70.14
2023-10-19T02:36:53.107Z,70.16
2023-10-19T02:39:26.912Z,69.63
2023-10-19T02:41:55.787Z,69.70
2023-10-19T02:44:24.202Z,69.39
2023-10-19T02:46:54.169Z,69.71
2023-10-19T02:49:24.072Z,70.18
2023-10-19T02:51:53.444Z,69.84
2023-10-19T02:54:26.387Z,69.27
2023-10-19T02:57:00.262Z,69.59
2023-10-19T02:59:33.510Z,69.82
2023-10-19T03:02:23.286Z,69.93
2023-10-19T03:04:51.618Z,69.90
2023-10-19T03:07:19.841Z,69.29
2023-10-19T03:09:56.062Z,70.31
2023-10-19T03:12:28.201Z,70.49
2023-10-19T03:14:55.563Z,70.76
2023-10-19T03:17:23.375Z,70.80
2023-10-19T03:19:50.582Z,70.52
2023-10-19T03:22:18.931Z,70.81
2023-10-19T03:24:46.141Z,70.73
2023-10-19T03:27:24.445Z,71.15
2023-10-19T03:29:56.722Z,72.37
2023-10-19T03:32:28.995Z,71.70
2023-10-19T03:34:57.752Z,72.10
2023-10-19T03:37:27.300Z,72.21
2023-10-19T03:39:58.346Z,72.60
2023-10-19T03:42:40.916Z,73.91
2023-10-19T03:45:17.083Z,74.05
2023-10-19T03:47:50.900Z,74.09
2023-10-19T03:50:22.376Z,73.90
2023-10-19T03:52:49.756Z,74.77
2023-10-19T03:55:19.578Z,74.90
2023-10-19T03:57:56.210Z,74.94
2023-10-19T04:00:28.695Z,74.26
2023-10-19T04:02:57.054Z,74.27
2023-10-19T04:05:24.735Z,74.79
2023-10-19T04:07:56.492Z,74.99
2023-10-19T04:10:36.676Z,75.06
2023-10-19T04:13:04.367Z,75.28
2023-10-19T04:15:35.978Z,75.08
2023-10-19T04:18:10.486Z,74.74
2023-10-19T04:20:54.058Z,75.26
2023-10-19T04:23:36.327Z,75.07
2023-10-19T04:26:19.270Z,75.26
2023-10-19T04:28:46.561Z,75.76
2023-10-19T04:31:17.490Z,76.44
2023-10-19T04:33:47.302Z,75.89
2023-10-19T04:36:16.381Z,75.47
2023-10-19T04:38:45.391Z,75.71
2023-10-19T04:41:12.586Z,75.66
2023-10-19T04:43:41.232Z,75.53
2023-10-19T04:46:12.891Z,75.85
2023-10-19T04:48:43.757Z,75.80
2023-10-19T04:51:11.424Z,75.22
2023-10-19T04:53:39.696Z,75.61
2023-10-19T04:56:10.301Z,75.87
2023-10-19T04:58:39.833Z,75.64
2023-10-19T05:01:07.162Z,76.13
2023-10-19T05:03:34.762Z,75.61
2023-10-19T05:06:02.756Z,76.21
2023-10-19T05:08:30.995Z,76.70
2023-10-19T05:11:00.638Z,76.35
2023-10-19T05:13:28.904Z,76.81
2023-10-19T05:16:00.598Z,76.63
2023-10-19T05:18:28.104Z,77.36
2023-10-19T05:20:58.344Z,76.81
2023-10-19T05:23:26.829Z,76.11
2023-10-19T05:26:05.063Z,76.54
2023-10-19T05:28:32.877Z,77.13
2023-10-19T05:31:01.056Z,77.31
2023-10-19T05:33:31.440Z,76.87
2023-10-19T05:35:58.707Z,76.81
2023-10-19T05:38:25.904Z,76.90
2023-10-19T05:40:53.605Z,77.22
2023-10-19T05:43:20.922Z,78.59
2023-10-19T05:45:51.625Z,79.66
2023-10-19T05:48:19.336Z,79.54
2023-10-19T05:50:46.567Z,79.04
2023-10-19T05:53:15.190Z,79.40
2023-10-19T05:55:42.666Z,79.87
2023-10-19T05:58:09.840Z,80.93
2023-10-19T06:00:37.069Z,80.30
2023-10-19T06:03:06.011Z,80.20
2023-10-19T06:05:33.341Z,81.17
2023-10-19T06:08:01.377Z,81.18
2023-10-19T06:10:30.147Z,81.80
2023-10-19T06:12:58.895Z,82.21
2023-10-19T06:15:26.371Z,82.76
2023-10-19T06:17:54.201Z,83.24
2023-10-19T06:20:25.374Z,83.53
2023-10-19T06:22:54.957Z,83.64
2023-10-19T06:25:26.247Z,84.52
2023-10-19T06:27:54.493Z,84.36
2023-10-19T06:30:24.376Z,84.40
2023-10-19T06:32:53.835Z,84.53
2023-10-19T06:35:22.411Z,84.56
2023-10-19T06:37:49.997Z,85.12
2023-10-19T06:40:18.368Z,85.80
2023-10-19T06:42:48.995Z,85.90
2023-10-19T06:45:17.824Z,86.23
2023-10-19T06:47:46.819Z,86.21
2023-10-19T06:50:17.264Z,86.57
2023-10-19T06:52:46.237Z,86.69
2023-10-19T06:55:24.041Z,86.99
2023-10-19T06:57:56.842Z,86.11
2023-10-19T07:00:28.220Z,87.46
2023-10-19T07:02:58.241Z,87.82
2023-10-19T07:05:31.365Z,87.71
2023-10-19T07:08:03.417Z,87.14
2023-10-19T07:10:31.112Z,87.12
2023-10-19T07:12:59.408Z,88.07
2023-10-19T07:15:28.366Z,88.63
2023-10-19T07:17:55.959Z,88.30
2023-10-19T07:20:29.081Z,88.35
2023-10-19T07:22:57.598Z,87.98
2023-10-19T07:25:27.308Z,88.06
2023-10-19T07:27:54.891Z,87.20
2023-10-19T07:30:23.287Z,86.56
2023-10-19T07:33:00.332Z,85.15
2023-10-19T07:35:28.806Z,83.33
2023-10-19T07:37:58.325Z,84.33
2023-10-19T07:40:29.114Z,85.13
2023-10-19T07:42:56.558Z,86.07
2023-10-19T07:45:27.489Z,85.55
2023-10-19T07:47:55.228Z,85.09
2023-10-19T07:50:24.105Z,84.56
2023-10-19T07:52:53.247Z,83.97
2023-10-19T07:55:26.797Z,83.84
2023-10-19T07:57:55.464Z,83.13
2023-10-19T08:00:26.204Z,82.41
2023-10-19T08:02:55.345Z,82.07
2023-10-19T08:05:23.258Z,81.79
2023-10-19T08:07:50.482Z,81.99
2023-10-19T08:10:19.949Z,80.70
2023-10-19T08:12:48.844Z,80.51
2023-10-19T08:15:17.307Z,79.70
2023-10-19T08:17:46.469Z,79.35
2023-10-19T08:20:17.775Z,78.71
2023-10-19T08:22:48.089Z,79.05
2023-10-19T08:25:18.329Z,77.05
2023-10-19T08:27:46.980Z,77.31
2023-10-19T08:30:14.555Z,76.58
2023-10-19T08:32:43.070Z,75.54
2023-10-19T08:35:13.812Z,74.99
2023-10-19T08:37:41.508Z,74.52
2023-10-19T08:40:15.761Z,74.59
2023-10-19T08:42:43.919Z,74.70
2023-10-19T08:45:14.805Z,74.86
2023-10-19T08:48:00.970Z,74.54
2023-10-19T08:50:30.242Z,73.07
2023-10-19T08:53:05.913Z,72.42
2023-10-19T08:55:45.955Z,71.59
2023-10-19T08:58:18.142Z,67.11
2023-10-19T09:00:49.155Z,67.59
2023-10-19T09:03:18.570Z,67.90
2023-10-19T09:05:47.958Z,67.03
2023-10-19T09:08:17.822Z,66.59
2023-10-19T09:10:50.356Z,64.19
2023-10-19T09:13:20.902Z,66.57
2023-10-19T09:15:55.491Z,67.99
2023-10-19T09:18:25.199Z,69.16
2023-10-19T09:20:54.478Z,66.72
2023-10-19T09:23:22.350Z,65.78
2023-10-19T09:25:56.142Z,57.61
2023-10-19T09:28:25.426Z,59.39
2023-10-19T09:30:53.598Z,60.19
2023-10-19T09:33:23.353Z,65.15
2023-10-19T09:35:55.302Z,65.51
2023-10-19T09:38:27.233Z,60.22
2023-10-19T09:40:56.445Z,63.15
2023-10-19T09:43:34.845Z,64.26
2023-10-19T09:46:30.558Z,63.01
2023-10-19T09:48:58.012Z,58.81
2023-10-19T09:51:26.247Z,60.44
2023-10-19T09:54:10.753Z,63.21
2023-10-19T09:56:42.739Z,61.86
2023-10-19T09:59:20.707Z,59.83
2023-10-19T10:02:15.010Z,58.22
2023-10-19T10:04:44.898Z,60.93
2023-10-19T10:07:12.257Z,59.97
2023-10-19T10:09:45.863Z,59.98
2023-10-19T10:12:22.671Z,57.14
2023-10-19T10:15:17.784Z,60.64
2023-10-19T10:17:51.253Z,55.26
2023-10-19T10:20:21.296Z,58.38
2023-10-19T10:23:26.209Z,59.32
2023-10-19T10:25:55.342Z,60.04
2023-10-19T10:28:25.297Z,59.03
2023-10-19T10:31:16.051Z,55.25
2023-10-19T10:33:48.856Z,58.89
2023-10-19T10:36:18.348Z,58.23
2023-10-19T10:38:50.245Z,57.37
2023-10-19T10:41:26.391Z,55.24
2023-10-19T10:43:58.418Z,56.51
2023-10-19T10:46:33.501Z,50.75
2023-10-19T10:49:00.759Z,55.64
2023-10-19T10:51:32.520Z,58.70
2023-10-19T10:54:00.173Z,59.71
2023-10-19T10:56:27.470Z,52.66
2023-10-19T10:58:56.436Z,54.39
2023-10-19T11:01:36.526Z,55.55
2023-10-19T11:04:09.110Z,54.64
2023-10-19T11:06:50.484Z,57.48
2023-10-19T11:09:20.916Z,57.50
2023-10-19T11:11:48.187Z,58.19
2023-10-19T11:14:15.549Z,58.48
2023-10-19T11:16:44.745Z,58.20
2023-10-19T11:19:13.120Z,57.57
2023-10-19T11:21:56.025Z,58.37
2023-10-19T11:24:29.956Z,58.06
2023-10-19T11:26:57.112Z,58.02
2023-10-19T11:29:25.415Z,58.93
2023-10-19T11:32:01.158Z,58.30
2023-10-19T11:34:30.693Z,57.92
2023-10-19T11:37:01.183Z,57.67
2023-10-19T11:39:30.068Z,59.23
2023-10-19T11:41:57.380Z,58.27
2023-10-19T11:44:24.990Z,59.92
2023-10-19T11:46:56.311Z,60.24
2023-10-19T11:49:26.741Z,61.18
2023-10-19T11:51:54.306Z,59.80
2023-10-19T11:54:21.469Z,59.29
2023-10-19T11:56:50.353Z,58.30
2023-10-19T11:59:17.747Z,58.63
2023-10-19T12:01:45.603Z,57.53
2023-10-19T12:04:12.884Z,55.86
2023-10-19T12:06:40.097Z,57.46
2023-10-19T12:09:16.419Z,57.49
2023-10-19T12:11:45.141Z,57.60
2023-10-19T12:14:16.241Z,58.15
2023-10-19T12:16:43.526Z,57.61
2023-10-19T12:19:10.749Z,56.80
2023-10-19T12:21:42.439Z,57.72
2023-10-19T12:24:09.895Z,58.88
2023-10-19T12:26:37.349Z,58.98
2023-10-19T12:29:08.536Z,59.09
2023-10-19T12:31:35.833Z,59.93
2023-10-19T12:34:03.004Z,58.87
2023-10-19T12:36:30.318Z,58.55
2023-10-19T12:38:58.693Z,58.04
2023-10-19T12:41:26.476Z,57.58
2023-10-19T12:43:54.244Z,57.88
2023-10-19T12:46:25.690Z,58.60
2023-10-19T12:48:54.026Z,57.97
2023-10-19T12:51:30.026Z,58.49
2023-10-19T12:53:57.337Z,57.44
2023-10-19T12:56:30.709Z,56.72
2023-10-19T12:58:58.161Z,54.96
2023-10-19T13:01:25.530Z,52.95
2023-10-19T13:03:53.005Z,54.72
2023-10-19T13:06:21.066Z,56.13
2023-10-19T13:08:48.576Z,56.46
2023-10-19T13:11:19.086Z,56.43
2023-10-19T13:13:50.777Z,56.06
2023-10-19T13:16:18.229Z,56.20
2023-10-19T13:18:48.457Z,55.34
2023-10-19T13:21:23.343Z,55.04
2023-10-19T13:23:50.497Z,55.28
2023-10-19T13:26:17.798Z,53.11
2023-10-19T13:28:46.399Z,54.20
2023-10-19T13:31:17.248Z,54.45
2023-10-19T13:33:45.588Z,54.59
2023-10-19T13:36:14.425Z,53.99
2023-10-19T13:38:42.812Z,53.92
2023-10-19T13:41:12.938Z,52.48
2023-10-19T13:43:41.498Z,52.25
2023-10-19T13:46:08.742Z,50.88
2023-10-19T13:48:37.310Z,52.05
2023-10-19T13:51:14.373Z,52.26
2023-10-19T13:53:42.803Z,52.95
2023-10-19T13:56:11.095Z,53.17
2023-10-19T13:58:39.258Z,53.63
2023-10-19T14:01:11.383Z,52.77
2023-10-19T14:03:39.721Z,53.57
2023-10-19T14:06:13.569Z,53.81
2023-10-19T14:08:40.748Z,54.25
2023-10-19T14:11:08.761Z,54.04
2023-10-19T14:13:37.173Z,53.61
2023-10-19T14:16:09.516Z,54.54
2023-10-19T14:18:40.455Z,54.67
2023-10-19T14:21:18.373Z,55.15
2023-10-19T14:23:47.041Z,56.09
2023-10-19T14:26:15.375Z,55.51
2023-10-19T14:28:43.017Z,55.98
2023-10-19T14:31:10.556Z,56.54
2023-10-19T14:33:37.782Z,56.66
2023-10-19T14:36:05.950Z,56.76
2023-10-19T14:38:36.063Z,56.54
2023-10-19T14:41:03.310Z,56.12
2023-10-19T14:43:34.327Z,57.09
2023-10-19T14:46:02.998Z,57.53
2023-10-19T14:48:30.469Z,58.04
2023-10-19T14:50:58.832Z,58.18
2023-10-19T14:53:27.470Z,58.18
2023-10-19T14:55:58.481Z,58.61
2023-10-19T14:58:27.285Z,58.67
2023-10-19T15:00:58.373Z,59.41
2023-10-19T15:03:26.369Z,59.63
2023-10-19T15:05:57.197Z,59.87
2023-10-19T15:08:25.878Z,59.84
2023-10-19T15:10:56.428Z,59.81
2023-10-19T15:13:23.901Z,59.81
2023-10-19T15:15:51.326Z,60.48
2023-10-19T15:18:19.523Z,60.76
2023-10-19T15:20:47.789Z,60.74
2023-10-19T15:23:15.357Z,60.90
2023-10-19T15:25:42.710Z,61.09
2023-10-19T15:28:11.170Z,60.91
2023-10-19T15:30:38.877Z,60.54
2023-10-19T15:33:06.306Z,60.63
2023-10-19T15:35:36.152Z,61.01
2023-10-19T15:38:03.395Z,61.37
2023-10-19T15:40:30.560Z,61.65
2023-10-19T15:43:00.433Z,62.14
2023-10-19T15:45:29.382Z,62.00
2023-10-19T15:47:57.744Z,61.98
2023-10-19T15:50:24.970Z,62.40
2023-10-19T15:52:53.618Z,62.51
2023-10-19T15:55:23.578Z,62.19
2023-10-19T15:57:55.626Z,62.16
2023-10-19T16:00:24.023Z,62.90
2023-10-19T16:02:52.137Z,62.83
2023-10-19T16:05:19.619Z,62.89
2023-10-19T16:07:47.330Z,63.36
2023-10-19T16:10:15.296Z,63.73
2023-10-19T16:12:45.685Z,63.83
2023-10-19T16:15:16.116Z,64.63
2023-10-19T16:17:45.155Z,64.47
2023-10-19T16:20:16.491Z,64.69
2023-10-19T16:22:44.116Z,64.92
2023-10-19T16:25:12.478Z,64.89
2023-10-19T16:27:40.283Z,64.92
2023-10-19T16:30:14.080Z,64.48
2023-10-19T16:32:42.274Z,63.68
2023-10-19T16:35:10.707Z,63.56
2023-10-19T16:37:38.166Z,64.41
2023-10-19T16:40:08.764Z,64.50
2023-10-19T16:42:35.991Z,64.17
2023-10-19T16:45:04.957Z,63.89
2023-10-19T16:47:32.329Z,63.69
2023-10-19T16:50:00.524Z,63.94
2023-10-19T16:52:28.263Z,63.79
2023-10-19T16:54:55.418Z,63.96
2023-10-19T16:57:23.168Z,64.00
2023-10-19T16:59:51.555Z,63.67
2023-10-19T17:02:19.211Z,63.75
2023-10-19T17:04:50.020Z,64.65
2023-10-19T17:07:17.755Z,64.85
2023-10-19T17:09:46.429Z,64.63
2023-10-19T17:12:13.653Z,64.66
2023-10-19T17:14:43.207Z,64.76
2023-10-19T17:17:10.524Z,64.76
2023-10-19T17:19:37.813Z,64.60
2023-10-19T17:22:05.061Z,64.84
2023-10-19T17:24:32.500Z,64.98
2023-10-19T17:27:00.107Z,65.41
2023-10-19T17:29:27.650Z,66.65
2023-10-19T17:31:55.042Z,67.60
2023-10-19T17:34:22.160Z,66.58
2023-10-19T17:36:49.517Z,66.64
2023-10-19T17:39:17.918Z,65.86
2023-10-19T17:41:49.256Z,66.15
2023-10-19T17:44:17.092Z,66.33
2023-10-19T17:46:44.802Z,65.96
2023-10-19T17:49:12.368Z,65.96
2023-10-19T17:51:40.236Z,66.34
2023-10-19T17:54:10.906Z,66.57
2023-10-19T17:56:40.985Z,66.92
2023-10-19T17:59:09.186Z,66.77
2023-10-19T18:01:37.375Z,66.92
2023-10-19T18:04:06.793Z,66.82
2023-10-19T18:06:34.131Z,66.99
2023-10-19T18:09:01.695Z,66.86
2023-10-19T18:11:28.989Z,67.71
2023-10-19T18:13:56.503Z,67.13
2023-10-19T18:16:26.829Z,67.16
2023-10-19T18:18:54.282Z,67.30
2023-10-19T18:21:21.555Z,67.16
2023-10-19T18:23:48.915Z,67.53
2023-10-19T18:26:17.460Z,67.87
2023-10-19T18:28:53.357Z,67.94
2023-10-19T18:31:21.581Z,67.90
2023-10-19T18:33:48.982Z,68.82
2023-10-19T18:36:17.169Z,68.82
2023-10-19T18:38:44.355Z,69.18
2023-10-19T18:41:13.070Z,68.61
2023-10-19T18:43:40.694Z,70.10
2023-10-19T18:46:08.039Z,70.64
2023-10-19T18:48:35.814Z,69.58
2023-10-19T18:51:06.038Z,68.65
2023-10-19T18:53:36.783Z,69.07
2023-10-19T18:56:07.332Z,69.52
2023-10-19T18:58:37.834Z,69.17
2023-10-19T19:01:05.765Z,69.45
2023-10-19T19:03:35.192Z,69.77
2023-10-19T19:06:12.512Z,70.00
2023-10-19T19:08:42.017Z,70.33
2023-10-19T19:11:11.780Z,70.65
2023-10-19T19:13:41.684Z,70.20
2023-10-19T19:16:09.764Z,70.55
2023-10-19T19:18:40.299Z,70.28
2023-10-19T19:21:11.819Z,70.24
2023-10-19T19:23:40.809Z,70.24
2023-10-19T19:26:09.526Z,70.67
2023-10-19T19:28:40.448Z,70.13
2023-10-19T19:31:07.740Z,70.33
2023-10-19T19:33:35.077Z,70.01
2023-10-19T19:36:02.438Z,70.62
2023-10-19T19:38:29.988Z,70.18
2023-10-19T19:40:57.519Z,70.49
2023-10-19T19:43:24.849Z,70.74
2023-10-19T19:45:55.551Z,71.00
2023-10-19T19:48:32.842Z,71.11
2023-10-19T19:51:00.140Z,71.25
2023-10-19T19:53:27.487Z,71.72
2023-10-19T19:55:54.880Z,71.81
2023-10-19T19:58:22.094Z,71.88
2023-10-19T20:00:49.245Z,71.94
2023-10-19T20:03:16.489Z,72.32
2023-10-19T20:05:43.770Z,72.67
2023-10-19T20:08:13.001Z,72.58
2023-10-19T20:10:44.295Z,73.05
2023-10-19T20:13:17.209Z,72.77
2023-10-19T20:15:45.171Z,72.83
2023-10-19T20:18:12.535Z,72.77
2023-10-19T20:20:40.504Z,73.06
2023-10-19T20:23:09.203Z,73.13
2023-10-19T20:25:36.451Z,73.53
2023-10-19T20:28:06.253Z,73.24
2023-10-19T20:30:35.087Z,73.74
2023-10-19T20:33:02.384Z,74.79
2023-10-19T20:35:33.978Z,75.26
2023-10-19T20:38:01.380Z,75.09
2023-10-19T20:40:32.465Z,75.49
2023-10-19T20:43:00.297Z,75.40
2023-10-19T20:45:30.009Z,75.39
2023-10-19T20:47:57.633Z,74.43
2023-10-19T20:50:31.167Z,74.46
2023-10-19T20:52:59.662Z,74.14
2023-10-19T20:55:27.187Z,74.30
2023-10-19T20:57:55.409Z,73.48
2023-10-19T21:00:23.974Z,73.42
2023-10-19T21:02:51.792Z,73.19
2023-10-19T21:05:20.704Z,73.79
2023-10-19T21:07:48.925Z,73.79
2023-10-19T21:10:19.922Z,74.36
2023-10-19T21:12:48.014Z,73.71
2023-10-19T21:15:18.839Z,73.83
2023-10-19T21:17:57.149Z,73.39
2023-10-19T21:20:25.867Z,73.20
2023-10-19T21:22:54.453Z,73.27
2023-10-19T21:25:25.702Z,73.78
2023-10-19T21:27:54.686Z,73.54
2023-10-19T21:30:21.958Z,73.28
2023-10-19T21:32:49.275Z,73.01
2023-10-19T21:35:17.103Z,73.61
2023-10-19T21:37:47.848Z,74.33
2023-10-19T21:40:14.976Z,74.10
2023-10-19T21:42:47.909Z,74.49
2023-10-19T21:45:16.729Z,74.28
2023-10-19T21:47:44.758Z,74.61
2023-10-19T21:50:12.429Z,74.38
2023-10-19T21:52:40.010Z,74.22
2023-10-19T21:55:12.129Z,74.52
2023-10-19T21:57:39.802Z,74.35
2023-10-19T22:00:14.068Z,74.25
2023-10-19T22:02:52.029Z,73.91
2023-10-19T22:05:29.738Z,74.15
2023-10-19T22:07:57.741Z,74.28
2023-10-19T22:10:25.045Z,74.97
2023-10-19T22:12:55.401Z,74.11
2023-10-19T22:15:22.664Z,72.96
2023-10-19T22:17:50.191Z,72.64
2023-10-19T22:20:17.948Z,73.87
2023-10-19T22:22:46.348Z,73.60
2023-10-19T22:25:22.454Z,73.29
2023-10-19T22:27:53.613Z,73.83
2023-10-19T22:30:21.010Z,73.37
2023-10-19T22:32:48.266Z,73.60
2023-10-19T22:35:15.694Z,73.30
2023-10-19T22:37:43.041Z,73.61
2023-10-19T22:40:10.759Z,73.13
2023-10-19T22:42:39.702Z,73.25
2023-10-19T22:45:13.889Z,74.01
2023-10-19T22:47:42.552Z,73.82
2023-10-19T22:50:10.566Z,73.91
2023-10-19T22:52:38.927Z,73.86
2023-10-19T22:55:07.634Z,73.87
2023-10-19T22:57:34.893Z,74.32
2023-10-19T23:00:02.077Z,74.02
2023-10-19T23:02:29.381Z,74.66
2023-10-19T23:04:56.730Z,74.45
2023-10-19T23:07:23.906Z,73.94
2023-10-19T23:09:52.691Z,74.60
2023-10-19T23:12:19.871Z,74.70
2023-10-19T23:14:47.945Z,75.04
2023-10-19T23:17:23.708Z,74.45
2023-10-19T23:19:54.331Z,74.27
2023-10-19T23:22:21.853Z,74.76
2023-10-19T23:24:51.281Z,73.24
2023-10-19T23:27:18.984Z,73.84
2023-10-19T23:29:50.797Z,73.75
2023-10-19T23:32:19.366Z,73.63
2023-10-19T23:34:49.293Z,74.21
2023-10-19T23:37:16.726Z,73.72
2023-10-19T23:39:46.949Z,73.90
2023-10-19T23:42:18.640Z,73.92
2023-10-19T23:44:48.443Z,73.79
2023-10-19T23:47:15.755Z,73.14
2023-10-19T23:49:42.988Z,73.56
2023-10-19T23:52:12.807Z,74.66
2023-10-19T23:54:40.066Z,73.57
2023-10-19T23:57:07.197Z,72.77
2023-10-19T23:59:34.448Z,73.26
